Time;durP1;ratioP1;P1;durP2;ratioP2;P2;SDS_P1;SDS_P2;PMS_P1;PMS_P2;Temp;Humidity;BMP_temperature;BMP_pressure;BME280_temperature;BME280_humidity;BME280_pressure;Samples;Min_cycle;Max_cycle;Signal;HPM_P1;HPM_P2
2022/04/18 00:00:08;;;;;;;18.37;10.17;;;;;;;;;;5100408;28;20032;-63
2022/04/18 00:02:34;;;;;;;13.40;9.00;;;;;;;;;;5091139;28;20040;-63
2022/04/18 00:05:00;;;;;;;16.27;9.03;;;;;;;;;;5096461;28;20035;-63
2022/04/18 00:07:26;;;;;;;17.33;9.80;;;;;;;;;;5111649;28;20054;-63
2022/04/18 00:09:52;;;;;;;16.97;9.73;;;;;;;;;;5112013;28;20047;-64
2022/04/18 00:12:18;;;;;;;19.20;10.63;;;;;;;;;;5109399;28;20052;-64
2022/04/18 00:14:45;;;;;;;14.67;8.70;;;;;;;;;;5111289;28;20043;-63
2022/04/18 00:17:11;;;;;;;17.00;9.73;;;;;;;;;;5111266;28;20117;-64
2022/04/18 00:19:37;;;;;;;17.93;9.73;;;;;;;;;;5080271;28;20075;-64
2022/04/18 00:22:04;;;;;;;16.60;9.67;;;;;;;;;;5090991;28;20044;-64
2022/04/18 00:24:31;;;;;;;19.37;9.97;;;;;;;;;;5090408;28;20430;-64
2022/04/18 00:26:57;;;;;;;14.57;9.50;;;;;;;;;;5090644;28;20050;-64
2022/04/18 00:29:23;;;;;;;19.57;10.60;;;;;;;;;;5073136;28;20055;-64
2022/04/18 00:31:49;;;;;;;23.20;10.60;;;;;;;;;;5090941;28;20044;-64
2022/04/18 00:34:15;;;;;;;16.73;10.40;;;;;;;;;;5090674;28;20046;-64
2022/04/18 00:36:41;;;;;;;17.90;11.07;;;;;;;;;;5090149;28;20490;-64
2022/04/18 00:39:07;;;;;;;18.10;10.77;;;;;;;;;;5090896;28;20051;-64
2022/04/18 00:41:33;;;;;;;16.80;10.00;;;;;;;;;;5090141;28;20040;-64
2022/04/18 00:43:59;;;;;;;14.57;10.07;;;;;;;;;;5090758;28;20078;-64
2022/04/18 00:46:26;;;;;;;20.80;10.33;;;;;;;;;;5090248;28;20499;-63
2022/04/18 00:48:52;;;;;;;15.53;10.30;;;;;;;;;;5082466;28;20043;-64
2022/04/18 00:51:21;;;;;;;18.17;10.43;;;;;;;;;;5110729;28;20082;-64
2022/04/18 00:53:47;;;;;;;17.50;10.17;;;;;;;;;;5104717;28;20075;-64
2022/04/18 00:56:14;;;;;;;15.77;9.83;;;;;;;;;;5090208;28;20087;-64
2022/04/18 00:58:41;;;;;;;14.20;10.37;;;;;;;;;;5094379;28;20075;-64
2022/04/18 01:01:07;;;;;;;19.33;10.70;;;;;;;;;;5110666;28;20083;-63
2022/04/18 01:03:33;;;;;;;17.40;11.03;;;;;;;;;;5092456;28;20058;-64
2022/04/18 01:06:00;;;;;;;16.97;10.30;;;;;;;;;;5109455;28;20047;-63
2022/04/18 01:08:27;;;;;;;19.03;9.93;;;;;;;;;;5110701;28;20185;-63
2022/04/18 01:10:53;;;;;;;17.60;10.00;;;;;;;;;;5110475;28;20509;-63
2022/04/18 01:13:19;;;;;;;17.00;11.07;;;;;;;;;;5081901;28;20043;-64
2022/04/18 01:15:45;;;;;;;21.60;11.47;;;;;;;;;;5090035;28;20032;-64
2022/04/18 01:18:11;;;;;;;19.60;11.70;;;;;;;;;;5089724;28;20048;-63
2022/04/18 01:20:37;;;;;;;18.67;11.10;;;;;;;;;;5089732;28;20834;-64
2022/04/18 01:23:05;;;;;;;18.83;11.87;;;;;;;;;;5090183;28;20091;-64
2022/04/18 01:31:01;;;;;;;22.20;11.07;;;;;;;;;;5095791;28;20040;-64
2022/04/18 01:33:27;;;;;;;14.70;9.87;;;;;;;;;;5110161;28;20130;-63
2022/04/18 01:35:53;;;;;;;21.53;12.03;;;;;;;;;;5109437;28;20051;-64
2022/04/18 01:38:19;;;;;;;17.80;11.13;;;;;;;;;;5109736;28;20047;-64
2022/04/18 01:40:45;;;;;;;18.53;11.17;;;;;;;;;;5110200;28;20581;-64
2022/04/18 01:43:11;;;;;;;19.40;11.43;;;;;;;;;;5107305;28;20058;-64
2022/04/18 01:45:37;;;;;;;20.57;11.53;;;;;;;;;;5095204;28;20040;-63
2022/04/18 01:48:03;;;;;;;22.30;11.77;;;;;;;;;;5072271;28;20101;-63
2022/04/18 01:50:29;;;;;;;20.50;11.80;;;;;;;;;;5092855;28;20071;-64
2022/04/18 01:52:55;;;;;;;19.63;11.13;;;;;;;;;;5109202;28;20046;-64
2022/04/18 01:55:21;;;;;;;19.23;10.87;;;;;;;;;;5109608;28;20054;-63
2022/04/18 01:57:48;;;;;;;22.20;11.43;;;;;;;;;;5109299;28;20678;-63
2022/04/18 02:00:14;;;;;;;19.70;11.63;;;;;;;;;;5099489;28;20419;-64
2022/04/18 02:02:40;;;;;;;17.00;11.57;;;;;;;;;;5088940;28;20585;-64
2022/04/18 02:05:07;;;;;;;21.20;12.30;;;;;;;;;;5089212;28;20147;-64
2022/04/18 02:07:33;;;;;;;21.00;11.50;;;;;;;;;;5089050;28;20043;-64
2022/04/18 02:09:59;;;;;;;17.23;11.27;;;;;;;;;;5089463;28;20052;-64
2022/04/18 02:12:25;;;;;;;19.17;11.70;;;;;;;;;;5089141;28;20113;-64
2022/04/18 02:14:51;;;;;;;19.73;11.57;;;;;;;;;;5096300;28;20048;-64
2022/04/18 02:17:17;;;;;;;22.23;12.50;;;;;;;;;;5109487;28;20202;-64
2022/04/18 02:19:44;;;;;;;22.40;12.20;;;;;;;;;;5091848;28;20066;-64
2022/04/18 02:22:12;;;;;;;17.87;12.13;;;;;;;;;;5088133;28;20056;-64
2022/04/18 02:24:38;;;;;;;20.37;11.93;;;;;;;;;;5089219;28;20044;-64
2022/04/18 02:27:06;;;;;;;19.83;12.47;;;;;;;;;;5089223;28;20051;-64
2022/04/18 02:29:32;;;;;;;19.87;12.67;;;;;;;;;;5088656;28;20044;-64
2022/04/18 02:34:43;;;;;;;19.43;11.53;;;;;;;;;;5101530;28;20044;-64
2022/04/18 02:37:10;;;;;;;20.70;13.07;;;;;;;;;;5107907;28;20062;-64
2022/04/18 02:39:36;;;;;;;19.83;12.10;;;;;;;;;;5109339;28;20095;-64
2022/04/18 02:42:02;;;;;;;16.83;11.97;;;;;;;;;;5101868;28;20048;-64
2022/04/18 02:44:28;;;;;;;22.00;12.03;;;;;;;;;;5088189;28;20055;-65
2022/04/18 02:46:54;;;;;;;20.83;12.00;;;;;;;;;;5088518;28;20394;-64
2022/04/18 02:49:20;;;;;;;19.40;12.30;;;;;;;;;;5088664;28;20124;-64
2022/04/18 02:51:46;;;;;;;16.03;10.20;;;;;;;;;;5088515;28;20131;-64
2022/04/18 02:54:12;;;;;;;17.70;10.30;;;;;;;;;;5088119;28;20044;-64
2022/04/18 02:56:38;;;;;;;20.67;12.00;;;;;;;;;;5088789;28;20051;-64
2022/04/18 02:59:04;;;;;;;21.70;12.40;;;;;;;;;;5109539;28;20036;-64
2022/04/18 03:01:30;;;;;;;20.20;11.50;;;;;;;;;;5111914;28;20119;-64
2022/04/18 03:03:56;;;;;;;20.63;12.10;;;;;;;;;;5113195;28;20513;-64
2022/04/18 03:06:22;;;;;;;23.97;12.67;;;;;;;;;;5112827;28;20051;-64
2022/04/18 03:08:48;;;;;;;18.17;11.20;;;;;;;;;;5113028;28;20059;-64
2022/04/18 03:11:14;;;;;;;18.57;11.23;;;;;;;;;;5112991;28;20122;-63
2022/04/18 03:13:47;;;;;;;19.97;11.90;;;;;;;;;;5102371;28;20543;-63
2022/04/18 03:16:13;;;;;;;19.20;11.57;;;;;;;;;;5112732;28;20046;-64
2022/04/18 03:18:39;;;;;;;16.20;10.97;;;;;;;;;;5112313;28;20073;-64
2022/04/18 03:21:05;;;;;;;18.93;11.20;;;;;;;;;;5112835;28;20069;-63
2022/04/18 03:23:32;;;;;;;15.63;11.03;;;;;;;;;;5103749;28;20573;-64
2022/04/18 03:25:58;;;;;;;18.90;12.53;;;;;;;;;;5092229;28;20686;-64
2022/04/18 03:28:25;;;;;;;17.53;11.50;;;;;;;;;;5101542;28;20126;-64
2022/04/18 03:30:51;;;;;;;19.43;11.37;;;;;;;;;;5112280;28;20047;-64
2022/04/18 03:33:17;;;;;;;17.03;11.10;;;;;;;;;;5112294;28;20039;-64
2022/04/18 03:39:50;;;;;;;19.30;11.23;;;;;;;;;;5112440;28;20067;-64
2022/04/18 03:41:15;;;;;;;20.63;10.57;;;;;;;;;;5091827;28;20127;-64
2022/04/18 03:43:41;;;;;;;17.77;11.03;;;;;;;;;;5073689;28;20046;-64
2022/04/18 03:46:07;;;;;;;21.30;11.60;;;;;;;;;;5092101;28;20052;-64
2022/04/18 03:48:33;;;;;;;18.93;11.33;;;;;;;;;;5091264;28;20128;-64
2022/04/18 03:50:59;;;;;;;17.57;11.20;;;;;;;;;;5091436;28;20048;-64
2022/04/18 03:53:25;;;;;;;18.30;11.70;;;;;;;;;;5098200;28;20114;-63
2022/04/18 03:55:51;;;;;;;18.47;11.83;;;;;;;;;;5111731;28;20179;-64
2022/04/18 03:58:17;;;;;;;19.50;11.20;;;;;;;;;;5111723;28;20069;-64
2022/04/18 04:00:43;;;;;;;19.13;12.03;;;;;;;;;;5111855;28;20460;-64
2022/04/18 04:03:10;;;;;;;18.20;11.17;;;;;;;;;;5100823;28;20051;-64
2022/04/18 04:05:36;;;;;;;18.90;11.03;;;;;;;;;;5091631;28;20093;-64
2022/04/18 04:08:02;;;;;;;19.37;10.93;;;;;;;;;;5094953;28;20047;-64
2022/04/18 04:10:28;;;;;;;18.27;11.53;;;;;;;;;;5108124;28;20047;-63
2022/04/18 04:12:54;;;;;;;20.13;12.83;;;;;;;;;;5091306;28;20055;-64
2022/04/18 04:15:21;;;;;;;18.50;11.27;;;;;;;;;;5091098;28;20176;-64
2022/04/18 04:17:46;;;;;;;16.17;10.87;;;;;;;;;;5091180;28;20119;-63
2022/04/18 04:20:12;;;;;;;17.40;10.70;;;;;;;;;;5090967;28;20193;-63
2022/04/18 04:22:43;;;;;;;19.63;10.70;;;;;;;;;;5099942;28;20097;-64
2022/04/18 04:25:09;;;;;;;19.70;11.67;;;;;;;;;;5111081;28;20104;-64
2022/04/18 04:27:35;;;;;;;20.50;11.93;;;;;;;;;;5111529;28;20044;-64
2022/04/18 04:30:01;;;;;;;19.33;11.17;;;;;;;;;;5111250;28;20055;-64
2022/04/18 04:32:27;;;;;;;17.57;10.63;;;;;;;;;;5111320;28;20088;-64
2022/04/18 04:34:53;;;;;;;17.97;10.60;;;;;;;;;;5106353;28;20123;-64
2022/04/18 04:37:19;;;;;;;20.60;11.70;;;;;;;;;;5090115;28;20048;-65
2022/04/18 04:39:45;;;;;;;20.07;11.47;;;;;;;;;;5090650;28;20048;-64
2022/04/18 04:42:12;;;;;;;18.17;11.60;;;;;;;;;;5090209;28;20674;-64
2022/04/18 04:44:38;;;;;;;23.83;12.03;;;;;;;;;;5090528;28;20383;-64
2022/04/18 04:47:04;;;;;;;17.27;10.50;;;;;;;;;;5094279;28;20620;-64
2022/04/18 04:49:30;;;;;;;17.90;11.37;;;;;;;;;;5101480;28;20131;-64
2022/04/18 04:51:56;;;;;;;15.97;11.17;;;;;;;;;;5110754;28;20054;-64
2022/04/18 04:54:22;;;;;;;17.77;10.87;;;;;;;;;;5110719;28;20384;-64
2022/04/18 04:56:49;;;;;;;17.30;11.03;;;;;;;;;;5096801;28;20044;-64
2022/04/18 04:59:15;;;;;;;17.07;11.37;;;;;;;;;;5089769;28;20514;-64
2022/04/18 05:01:41;;;;;;;18.00;10.53;;;;;;;;;;5089884;28;20533;-64
2022/04/18 05:04:07;;;;;;;19.37;11.97;;;;;;;;;;5090224;28;20060;-64
2022/04/18 05:06:33;;;;;;;19.20;11.27;;;;;;;;;;5089877;28;20048;-64
2022/04/18 05:09:00;;;;;;;19.00;10.60;;;;;;;;;;5089914;28;20072;-64
2022/04/18 05:11:26;;;;;;;16.43;10.97;;;;;;;;;;5102645;28;20039;-64
2022/04/18 05:13:52;;;;;;;19.80;11.30;;;;;;;;;;5110574;28;20039;-64
2022/04/18 05:16:18;;;;;;;23.33;11.07;;;;;;;;;;5108286;28;20047;-64
2022/04/18 05:18:44;;;;;;;17.07;10.57;;;;;;;;;;5089940;28;20132;-64
2022/04/18 05:21:11;;;;;;;19.37;11.17;;;;;;;;;;5088819;28;20051;-64
2022/04/18 05:23:37;;;;;;;19.37;10.90;;;;;;;;;;5089426;28;20458;-64
2022/04/18 05:26:03;;;;;;;17.07;10.97;;;;;;;;;;5092566;28;20071;-64
2022/04/18 05:28:29;;;;;;;18.30;10.80;;;;;;;;;;5092530;28;20038;-64
2022/04/18 05:30:55;;;;;;;18.40;10.57;;;;;;;;;;5089939;28;20044;-64
2022/04/18 05:33:21;;;;;;;17.37;10.60;;;;;;;;;;5100472;28;20048;-64
2022/04/18 05:35:47;;;;;;;19.43;11.07;;;;;;;;;;5109567;28;20047;-64
2022/04/18 05:38:14;;;;;;;19.93;11.20;;;;;;;;;;5109724;28;20051;-64
2022/04/18 05:40:40;;;;;;;21.20;11.43;;;;;;;;;;5108950;28;20089;-64
2022/04/18 05:43:08;;;;;;;18.33;11.70;;;;;;;;;;5109786;28;20792;-64
2022/04/18 05:45:34;;;;;;;17.23;11.23;;;;;;;;;;5109775;28;20130;-64
2022/04/18 05:48:01;;;;;;;18.33;11.83;;;;;;;;;;5106667;28;20040;-66
2022/04/18 05:50:27;;;;;;;19.23;12.37;;;;;;;;;;5109850;28;20112;-66
2022/04/18 05:52:53;;;;;;;20.87;11.33;;;;;;;;;;5109460;28;20036;-64
2022/04/18 05:55:20;;;;;;;22.83;11.50;;;;;;;;;;5090788;28;20047;-64
2022/04/18 05:57:46;;;;;;;19.60;10.87;;;;;;;;;;5089225;28;20044;-64
2022/04/18 06:00:12;;;;;;;22.77;11.93;;;;;;;;;;5090630;28;20138;-64
2022/04/18 06:02:38;;;;;;;20.70;11.60;;;;;;;;;;5092325;28;20082;-64
2022/04/18 06:05:05;;;;;;;17.63;10.73;;;;;;;;;;5097993;28;20128;-64
2022/04/18 06:07:31;;;;;;;19.67;11.53;;;;;;;;;;5099518;28;20561;-65
2022/04/18 06:09:57;;;;;;;26.07;13.30;;;;;;;;;;5079985;28;20124;-64
2022/04/18 06:12:23;;;;;;;20.83;12.27;;;;;;;;;;5096925;28;20051;-64
2022/04/18 06:14:49;;;;;;;21.87;11.13;;;;;;;;;;5097128;28;20035;-64
2022/04/18 06:17:15;;;;;;;22.37;11.20;;;;;;;;;;5098463;28;20040;-64
2022/04/18 06:19:41;;;;;;;19.10;12.17;;;;;;;;;;5097304;28;20509;-65
2022/04/18 06:22:07;;;;;;;21.63;12.40;;;;;;;;;;5097045;28;20059;-64
2022/04/18 06:24:33;;;;;;;17.53;11.80;;;;;;;;;;5090065;28;20066;-64
2022/04/18 06:26:59;;;;;;;21.00;12.37;;;;;;;;;;5088445;28;20044;-64
2022/04/18 06:29:25;;;;;;;18.93;11.07;;;;;;;;;;5088965;28;20040;-64
2022/04/18 06:31:53;;;;;;;21.40;11.63;;;;;;;;;;5088676;28;20456;-64
2022/04/18 06:34:19;;;;;;;16.13;11.87;;;;;;;;;;5091661;28;20048;-64
2022/04/18 06:36:45;;;;;;;23.37;12.47;;;;;;;;;;5107381;28;20062;-64
2022/04/18 06:39:11;;;;;;;18.83;11.47;;;;;;;;;;5100725;28;20048;-64
2022/04/18 06:41:37;;;;;;;21.07;12.83;;;;;;;;;;5103427;28;20032;-64
2022/04/18 06:44:03;;;;;;;21.57;12.40;;;;;;;;;;5107914;28;20504;-64
2022/04/18 06:46:29;;;;;;;24.20;12.00;;;;;;;;;;5097731;28;20043;-64
2022/04/18 06:48:55;;;;;;;24.33;13.10;;;;;;;;;;5089094;28;20051;-63
2022/04/18 06:51:22;;;;;;;21.87;12.53;;;;;;;;;;5070360;28;20414;-63
2022/04/18 06:53:48;;;;;;;19.57;12.63;;;;;;;;;;5088258;28;20047;-63
2022/04/18 06:58:59;;;;;;;23.30;11.73;;;;;;;;;;5088693;28;20395;-63
2022/04/18 07:01:25;;;;;;;26.27;12.07;;;;;;;;;;5088302;28;20055;-64
2022/04/18 07:03:51;;;;;;;17.97;11.70;;;;;;;;;;5072013;28;20075;-63
2022/04/18 07:06:17;;;;;;;21.60;12.67;;;;;;;;;;5089433;28;20052;-64
2022/04/18 07:08:45;;;;;;;18.47;11.07;;;;;;;;;;5099544;28;20101;-63
2022/04/18 07:11:11;;;;;;;19.40;11.80;;;;;;;;;;5106678;28;20710;-63
2022/04/18 07:13:37;;;;;;;20.73;12.90;;;;;;;;;;5097686;28;20134;-64
2022/04/18 07:16:04;;;;;;;20.30;11.70;;;;;;;;;;5091912;28;20101;-64
2022/04/18 07:18:30;;;;;;;20.80;11.60;;;;;;;;;;5100025;28;20105;-64
2022/04/18 07:20:56;;;;;;;22.27;11.83;;;;;;;;;;5108922;28;20040;-63
2022/04/18 07:23:22;;;;;;;19.97;12.03;;;;;;;;;;5098302;28;20100;-63
2022/04/18 07:25:48;;;;;;;19.70;11.60;;;;;;;;;;5088064;28;20407;-64
2022/04/18 07:28:14;;;;;;;16.63;10.37;;;;;;;;;;5098961;28;20511;-64
2022/04/18 07:30:40;;;;;;;18.17;11.80;;;;;;;;;;5108052;28;20075;-64
2022/04/18 07:33:06;;;;;;;16.83;11.13;;;;;;;;;;5108028;28;20050;-64
2022/04/18 07:35:33;;;;;;;14.53;10.00;;;;;;;;;;5096954;28;20043;-64
2022/04/18 07:40:48;;;;;;;18.80;10.77;;;;;;;;;;5063055;28;20824;-64
2022/04/18 07:43:14;;;;;;;16.07;10.40;;;;;;;;;;5100568;28;20050;-64
2022/04/18 07:45:40;;;;;;;15.60;10.20;;;;;;;;;;5092040;28;20036;-64
2022/04/18 07:48:10;;;;;;;15.23;9.20;;;;;;;;;;5073326;28;20048;-64
2022/04/18 07:53:21;;;;;;;15.60;9.13;;;;;;;;;;5101231;28;20036;-64
2022/04/18 07:55:48;;;;;;;15.17;9.40;;;;;;;;;;5099812;28;20117;-64
2022/04/18 07:58:14;;;;;;;16.10;9.20;;;;;;;;;;5099124;28;20047;-64
2022/04/18 08:00:40;;;;;;;15.00;9.30;;;;;;;;;;5104488;28;20044;-64
2022/04/18 08:03:06;;;;;;;18.50;8.77;;;;;;;;;;5096737;28;20048;-65
2022/04/18 08:05:33;;;;;;;16.60;8.67;;;;;;;;;;5093040;28;20043;-64
2022/04/18 08:07:58;;;;;;;16.00;8.53;;;;;;;;;;5107207;28;20051;-64
2022/04/18 08:10:24;;;;;;;12.77;8.60;;;;;;;;;;5111614;28;20047;-64
2022/04/18 08:12:50;;;;;;;16.30;9.53;;;;;;;;;;5100271;28;20047;-64
2022/04/18 08:15:16;;;;;;;16.23;8.27;;;;;;;;;;5092965;28;20036;-64
2022/04/18 08:17:43;;;;;;;15.83;8.37;;;;;;;;;;5098527;28;20145;-64
2022/04/18 08:20:09;;;;;;;13.33;8.90;;;;;;;;;;5106228;28;20055;-65
2022/04/18 08:22:35;;;;;;;13.87;7.63;;;;;;;;;;5090521;28;20048;-65
2022/04/18 08:25:01;;;;;;;11.73;7.07;;;;;;;;;;5090342;28;20585;-65
2022/04/18 08:27:28;;;;;;;12.27;6.80;;;;;;;;;;5091200;28;20042;-65
2022/04/18 08:29:54;;;;;;;9.80;6.90;;;;;;;;;;5094468;28;20052;-65
2022/04/18 08:32:20;;;;;;;11.57;6.50;;;;;;;;;;5102867;28;20213;-65
2022/04/18 08:34:46;;;;;;;13.17;7.43;;;;;;;;;;5108375;28;20050;-65
2022/04/18 08:37:12;;;;;;;13.47;7.10;;;;;;;;;;5108492;28;20066;-65
2022/04/18 08:39:38;;;;;;;13.17;7.40;;;;;;;;;;5091522;28;20513;-65
2022/04/18 08:42:06;;;;;;;10.17;6.80;;;;;;;;;;5093945;28;20088;-65
2022/04/18 08:44:34;;;;;;;14.20;6.87;;;;;;;;;;5094024;28;20628;-65
2022/04/18 08:47:00;;;;;;;12.60;6.90;;;;;;;;;;5079491;28;20076;-67
2022/04/18 08:54:58;;;;;;;14.37;5.97;;;;;;;;;;5101847;28;20450;-66
2022/04/18 08:57:24;;;;;;;10.30;6.23;;;;;;;;;;5091209;28;20122;-66
2022/04/18 08:59:50;;;;;;;13.47;7.27;;;;;;;;;;5109884;28;20044;-66
2022/04/18 09:02:16;;;;;;;10.33;6.57;;;;;;;;;;5100589;28;20055;-66
2022/04/18 09:04:42;;;;;;;15.13;6.17;;;;;;;;;;5104468;28;20930;-66
2022/04/18 09:07:12;;;;;;;11.37;6.83;;;;;;;;;;5110595;28;20040;-67
2022/04/18 09:09:39;;;;;;;9.53;6.13;;;;;;;;;;5108111;28;20188;-66
2022/04/18 09:12:18;;;;;;;11.97;6.20;;;;;;;;;;5096886;28;20051;-66
2022/04/18 09:14:48;;;;;;;10.33;6.77;;;;;;;;;;5093398;28;20569;-66
2022/04/18 09:17:26;;;;;;;10.13;6.80;;;;;;;;;;5106400;28;20067;-66
2022/04/18 09:20:03;;;;;;;11.23;6.57;;;;;;;;;;5089131;28;20044;-66
2022/04/18 09:22:29;;;;;;;9.03;6.20;;;;;;;;;;5089796;28;20059;-66
2022/04/18 09:24:55;;;;;;;10.57;7.37;;;;;;;;;;5098254;28;20576;-66
2022/04/18 09:27:24;;;;;;;11.70;6.80;;;;;;;;;;5109131;28;20509;-66
2022/04/18 09:30:10;;;;;;;13.70;7.20;;;;;;;;;;5088248;28;20463;-66
2022/04/18 09:32:37;;;;;;;8.87;6.13;;;;;;;;;;5088887;28;20044;-66
2022/04/18 09:35:05;;;;;;;11.43;6.30;;;;;;;;;;5089444;28;20063;-66
2022/04/18 09:37:32;;;;;;;9.00;6.17;;;;;;;;;;5093505;28;20135;-66
2022/04/18 09:39:58;;;;;;;13.60;7.27;;;;;;;;;;5092222;28;20052;-66
2022/04/18 09:42:28;;;;;;;10.97;6.13;;;;;;;;;;5105898;28;20050;-66
2022/04/18 09:44:54;;;;;;;13.30;7.20;;;;;;;;;;5100887;28;20124;-66
2022/04/18 09:47:21;;;;;;;9.03;6.03;;;;;;;;;;5094945;28;20101;-66
2022/04/18 09:49:48;;;;;;;10.97;6.80;;;;;;;;;;5094858;28;20154;-66
2022/04/18 09:52:16;;;;;;;10.23;6.97;;;;;;;;;;5091738;28;20698;-66
2022/04/18 09:54:51;;;;;;;8.27;5.93;;;;;;;;;;5090930;28;20502;-66
2022/04/18 09:57:21;;;;;;;8.73;6.67;;;;;;;;;;5097322;28;20039;-66
2022/04/18 09:59:48;;;;;;;12.33;7.00;;;;;;;;;;5089101;28;20047;-66
2022/04/18 10:02:14;;;;;;;10.93;6.70;;;;;;;;;;5090479;28;20097;-66
2022/04/18 10:04:41;;;;;;;11.07;7.23;;;;;;;;;;5095929;28;20513;-66
2022/04/18 10:07:07;;;;;;;8.00;5.57;;;;;;;;;;5095020;28;20088;-66
2022/04/18 10:09:33;;;;;;;12.43;6.20;;;;;;;;;;5095880;28;20862;-66
2022/04/18 10:11:59;;;;;;;7.40;6.03;;;;;;;;;;5093127;28;20044;-67
2022/04/18 10:14:25;;;;;;;7.77;6.13;;;;;;;;;;5087028;28;20613;-66
2022/04/18 10:16:53;;;;;;;8.97;5.77;;;;;;;;;;5102743;28;20039;-66
2022/04/18 10:19:27;;;;;;;10.63;6.17;;;;;;;;;;5100242;28;20093;-67
2022/04/18 10:22:03;;;;;;;9.13;5.70;;;;;;;;;;5102289;28;20051;-67
2022/04/18 10:24:40;;;;;;;7.78;5.45;;;;;;;;;;5093807;28;20043;-67
2022/04/18 10:27:18;;;;;;;8.90;6.25;;;;;;;;;;5108147;28;20118;-66
2022/04/18 10:29:54;;;;;;;12.63;6.32;;;;;;;;;;5106958;28;20382;-66
2022/04/18 10:32:22;;;;;;;6.50;4.78;;;;;;;;;;5107516;28;20052;-66
2022/04/18 10:34:52;;;;;;;8.65;5.88;;;;;;;;;;5108966;28;20074;-66
2022/04/18 10:37:22;;;;;;;9.55;5.75;;;;;;;;;;5072268;28;20052;-66
2022/04/18 10:39:55;;;;;;;8.27;5.10;;;;;;;;;;5088574;28;20044;-66
2022/04/18 10:42:22;;;;;;;6.68;5.22;;;;;;;;;;5093927;28;20058;-66
2022/04/18 10:44:58;;;;;;;5.82;4.57;;;;;;;;;;5108907;28;20058;-66
2022/04/18 10:47:25;;;;;;;6.18;4.18;;;;;;;;;;5098491;28;20040;-66
2022/04/18 10:50:10;;;;;;;5.40;4.60;;;;;;;;;;5100685;28;20415;-66
2022/04/18 10:52:36;;;;;;;5.45;4.00;;;;;;;;;;5105343;28;20683;-66
2022/04/18 10:55:02;;;;;;;8.95;5.07;;;;;;;;;;5104934;28;20075;-66
2022/04/18 10:57:28;;;;;;;6.25;4.18;;;;;;;;;;5089696;28;20568;-69
2022/04/18 10:59:54;;;;;;;5.38;3.97;;;;;;;;;;5100422;28;20101;-66
2022/04/18 11:02:46;;;;;;;7.07;5.22;;;;;;;;;;5087000;28;20616;-67
2022/04/18 11:05:12;;;;;;;8.03;5.03;;;;;;;;;;5085526;28;20052;-67
2022/04/18 11:07:39;;;;;;;5.38;3.15;;;;;;;;;;5096544;28;20048;-66
2022/04/18 11:10:22;;;;;;;4.68;3.50;;;;;;;;;;5088268;28;20086;-66
2022/04/18 11:12:50;;;;;;;7.40;4.03;;;;;;;;;;5100554;28;20135;-66
2022/04/18 11:15:17;;;;;;;4.30;3.60;;;;;;;;;;5104342;28;20058;-66
2022/04/18 11:17:43;;;;;;;6.68;3.72;;;;;;;;;;5092297;28;20039;-66
2022/04/18 11:20:25;;;;;;;5.80;3.70;;;;;;;;;;5106422;28;20154;-66
2022/04/18 11:23:10;;;;;;;6.82;4.35;;;;;;;;;;5091730;28;20101;-66
2022/04/18 11:25:49;;;;;;;5.57;4.35;;;;;;;;;;5091876;28;20080;-66
2022/04/18 11:28:16;;;;;;;7.45;3.53;;;;;;;;;;5092015;28;20052;-66
2022/04/18 11:30:42;;;;;;;5.10;3.88;;;;;;;;;;5091516;28;20114;-66
2022/04/18 11:33:08;;;;;;;6.82;3.75;;;;;;;;;;5091987;28;20218;-66
2022/04/18 11:35:35;;;;;;;5.90;4.40;;;;;;;;;;5097524;28;20061;-66
2022/04/18 11:38:07;;;;;;;6.38;4.25;;;;;;;;;;5111786;28;20075;-66
2022/04/18 11:40:36;;;;;;;5.05;3.47;;;;;;;;;;5090685;28;20044;-67
2022/04/18 11:43:09;;;;;;;6.50;4.03;;;;;;;;;;5091619;28;20036;-66
2022/04/18 11:45:35;;;;;;;4.35;3.72;;;;;;;;;;5099358;28;20047;-66
2022/04/18 11:48:04;;;;;;;6.10;3.72;;;;;;;;;;5111219;28;20604;-66
2022/04/18 11:50:30;;;;;;;7.78;4.15;;;;;;;;;;5091981;28;20056;-66
2022/04/18 11:53:03;;;;;;;4.85;3.50;;;;;;;;;;5105046;28;20046;-66
2022/04/18 11:55:30;;;;;;;5.70;3.67;;;;;;;;;;5100676;28;20689;-66
2022/04/18 11:57:55;;;;;;;4.47;3.42;;;;;;;;;;5091960;28;20347;-66
2022/04/18 12:08:43;;;;;;;4.80;3.47;;;;;;;;;;5067596;28;20040;-66
2022/04/18 12:11:09;;;;;;;6.47;3.20;;;;;;;;;;5090596;28;20048;-67
2022/04/18 12:13:40;;;;;;;4.82;3.30;;;;;;;;;;5096271;28;20492;-67
2022/04/18 12:16:06;;;;;;;5.25;3.42;;;;;;;;;;5097099;28;20065;-67
2022/04/18 12:18:32;;;;;;;4.10;3.05;;;;;;;;;;5110666;28;20039;-67
2022/04/18 12:20:58;;;;;;;5.85;3.65;;;;;;;;;;5109921;28;20046;-67
2022/04/18 12:23:25;;;;;;;4.65;3.45;;;;;;;;;;5109908;28;20048;-67
2022/04/18 12:25:55;;;;;;;4.38;3.47;;;;;;;;;;5100374;28;20047;-67
2022/04/18 12:28:23;;;;;;;4.15;2.92;;;;;;;;;;5101105;28;20696;-66
2022/04/18 12:30:49;;;;;;;5.88;3.55;;;;;;;;;;5092876;28;20113;-67
2022/04/18 12:33:20;;;;;;;4.78;3.25;;;;;;;;;;5098682;28;20557;-67
2022/04/18 12:35:51;;;;;;;4.55;2.97;;;;;;;;;;5092043;28;20052;-67
2022/04/18 12:38:17;;;;;;;2.85;2.50;;;;;;;;;;5110111;28;20059;-67
2022/04/18 12:40:44;;;;;;;5.22;3.33;;;;;;;;;;5111030;28;20043;-67
2022/04/18 12:43:14;;;;;;;4.22;3.00;;;;;;;;;;5101618;28;20059;-67
2022/04/18 12:45:44;;;;;;;5.05;3.10;;;;;;;;;;5100461;28;20040;-68
2022/04/18 12:48:10;;;;;;;3.15;2.58;;;;;;;;;;5093789;28;20066;-67
2022/04/18 12:50:36;;;;;;;4.88;2.83;;;;;;;;;;5110885;28;20493;-67
2022/04/18 12:53:03;;;;;;;3.60;2.72;;;;;;;;;;5110867;28;20089;-67
2022/04/18 12:55:30;;;;;;;4.03;2.65;;;;;;;;;;5097083;28;20760;-67
2022/04/18 12:57:56;;;;;;;4.13;3.15;;;;;;;;;;5102642;28;20119;-68
2022/04/18 13:00:22;;;;;;;6.43;2.83;;;;;;;;;;5094736;28;20051;-67
2022/04/18 13:02:58;;;;;;;5.35;3.25;;;;;;;;;;5101221;28;20473;-67
2022/04/18 13:05:25;;;;;;;3.47;2.70;;;;;;;;;;5110427;28;20100;-67
2022/04/18 13:07:52;;;;;;;4.18;3.15;;;;;;;;;;5110230;28;20092;-67
2022/04/18 13:10:25;;;;;;;7.00;3.20;;;;;;;;;;5110381;28;20780;-67
2022/04/18 13:12:58;;;;;;;4.20;2.72;;;;;;;;;;5094480;28;20082;-67
2022/04/18 13:15:25;;;;;;;3.95;2.72;;;;;;;;;;5089460;28;20040;-67
2022/04/18 13:18:04;;;;;;;5.47;3.13;;;;;;;;;;5089784;28;20892;-67
2022/04/18 13:20:30;;;;;;;5.30;3.30;;;;;;;;;;5103207;28;20079;-67
2022/04/18 13:22:56;;;;;;;4.03;3.10;;;;;;;;;;5101073;28;20123;-67
2022/04/18 13:25:23;;;;;;;5.40;2.95;;;;;;;;;;5104479;28;20078;-67
2022/04/18 13:27:50;;;;;;;3.35;2.53;;;;;;;;;;5096487;28;20051;-67
2022/04/18 13:30:16;;;;;;;3.17;2.70;;;;;;;;;;5088747;28;20040;-67
2022/04/18 13:32:42;;;;;;;3.90;2.80;;;;;;;;;;5095398;28;20040;-67
2022/04/18 13:35:08;;;;;;;5.18;2.90;;;;;;;;;;5092654;28;20150;-67
2022/04/18 13:37:34;;;;;;;5.60;2.85;;;;;;;;;;5102190;28;20043;-68
2022/04/18 13:40:00;;;;;;;6.45;3.05;;;;;;;;;;5099278;28;20450;-67
2022/04/18 13:42:26;;;;;;;4.70;3.08;;;;;;;;;;5099940;28;20138;-67
2022/04/18 13:44:52;;;;;;;4.57;2.80;;;;;;;;;;5109791;28;20096;-67
2022/04/18 13:47:18;;;;;;;4.40;2.85;;;;;;;;;;5109338;28;20399;-67
2022/04/18 13:49:44;;;;;;;6.35;3.92;;;;;;;;;;5109638;28;20043;-67
2022/04/18 13:52:10;;;;;;;4.03;3.22;;;;;;;;;;5108135;28;20035;-67
2022/04/18 13:54:37;;;;;;;4.70;3.10;;;;;;;;;;5107796;28;20517;-67
2022/04/18 13:57:05;;;;;;;3.67;2.55;;;;;;;;;;5102915;28;20436;-67
2022/04/18 13:59:31;;;;;;;4.00;3.03;;;;;;;;;;5088295;28;20083;-67
2022/04/18 14:01:57;;;;;;;3.70;2.90;;;;;;;;;;5089423;28;20087;-67
2022/04/18 14:04:23;;;;;;;4.63;2.90;;;;;;;;;;5089079;28;20044;-67
2022/04/18 14:06:49;;;;;;;6.88;3.45;;;;;;;;;;5097737;28;20391;-67
2022/04/18 14:09:15;;;;;;;5.90;3.70;;;;;;;;;;5109846;28;20040;-66
2022/04/18 14:11:41;;;;;;;3.97;2.88;;;;;;;;;;5090914;28;20044;-67
2022/04/18 14:14:08;;;;;;;3.95;3.00;;;;;;;;;;5101957;28;20490;-67
2022/04/18 14:22:04;;;;;;;4.90;3.05;;;;;;;;;;5101265;28;20126;-66
2022/04/18 14:24:31;;;;;;;5.15;3.22;;;;;;;;;;5100017;28;20044;-67
2022/04/18 14:26:57;;;;;;;3.95;2.88;;;;;;;;;;5089937;28;20044;-66
2022/04/18 14:29:23;;;;;;;3.92;2.88;;;;;;;;;;5095713;28;20051;-66
2022/04/18 14:31:50;;;;;;;4.90;3.35;;;;;;;;;;5096178;28;20508;-67
2022/04/18 14:34:16;;;;;;;4.10;2.88;;;;;;;;;;5100097;28;20050;-66
2022/04/18 14:36:42;;;;;;;4.18;3.13;;;;;;;;;;5100635;28;20035;-66
2022/04/18 14:39:09;;;;;;;6.38;3.38;;;;;;;;;;5101171;28;20057;-66
2022/04/18 14:41:35;;;;;;;4.40;3.20;;;;;;;;;;5088611;28;20521;-67
2022/04/18 14:44:02;;;;;;;5.03;3.20;;;;;;;;;;5091661;28;20834;-67
2022/04/18 14:46:28;;;;;;;4.25;2.95;;;;;;;;;;5097192;28;20086;-67
2022/04/18 14:48:55;;;;;;;3.65;2.88;;;;;;;;;;5097601;28;20042;-67
2022/04/18 14:51:24;;;;;;;3.90;3.38;;;;;;;;;;5093776;28;20494;-67
2022/04/18 14:53:52;;;;;;;5.82;3.20;;;;;;;;;;5113057;28;20052;-66
2022/04/18 14:56:18;;;;;;;6.03;3.40;;;;;;;;;;5112691;28;20043;-67
2022/04/18 14:58:44;;;;;;;4.65;3.17;;;;;;;;;;5098296;28;20051;-66
2022/04/18 15:01:10;;;;;;;5.20;2.83;;;;;;;;;;5092512;28;20044;-66
2022/04/18 15:03:36;;;;;;;6.07;3.05;;;;;;;;;;5092534;28;20105;-67
2022/04/18 15:06:02;;;;;;;3.55;2.85;;;;;;;;;;5092729;28;20048;-67